logo dgac
Martes 21 de Septiembre del 2021
Buscar por aerodromo o helipuerto
Ingrese nombre de aeródromo, localidad o designador OACI:
TAF: TAF SCFA 211019Z 2112/2212 21004KT 9999 OVC030 TX16/2118Z TN13/2210Z BECMG 2116/2118 21012KT FEW018 BECMG 2121/2123 BKN025 BECMG 2202/2204 21004KT BECMG 2208/2210 BKN030
TAF del 21/09/2021 a las 10:19 UTC
Para mayor información visite www.meteochile.cl
Período de validez: desde el 21 a las 12:00 UTC hasta el 22 a las 12:00 UTC
Viento: dirección 210 grados, velocidad 4 nudos
Visibilidad: 10 km o más
Nubes: Cubierto a 3000 pies sobre el nivel del aeródromo
Temperatura máxima: 16ºC el 21 a las 18:00 UTC
Temperatura mínima: 13ºC el 22 a las 10:00 UTC
Se espera un cambio entre las 16:00 UTC del 21 y las 18:00 UTC del 21, :
Viento: dirección 210 grados, velocidad 12 nudos
Nubes: Escasa nubosidad a 1800 pies sobre el nivel del aeródromo
Se espera un cambio entre las 21:00 UTC del 21 y las 23:00 UTC del 21, :
Nubes: Nublado a 2500 pies sobre el nivel del aeródromo
Se espera un cambio entre las 02:00 UTC del 22 y las 04:00 UTC del 22, :
Viento: dirección 210 grados, velocidad 4 nudos
Se espera un cambio entre las 08:00 UTC del 22 y las 10:00 UTC del 22, :
Nubes: Nublado a 3000 pies sobre el nivel del aeródromo